Aurora, WV (26705)

6:48 AM EDT on September 25, 2016 (GMT -0400)
1 1/2 Mi. South of Terra Alta, Snowy Creek WV | | Change Station

Elev 2842 ft 39.40 °N, 79.58 °W | Updated 6 seconds ago

Clear
Clear
43.3 °F
Feels Like 43 °F
N
0.0
Wind Variable Wind from NE

Today
High -- | Low -- °F
--% Chance of Precip.
Yesterday
High -- | Low -- °F
Precip. -- in
Pressure 30.21 in
Visibility 10.0 miles
Clouds Clear
Windchill 43 °F
Dew Point 40 °F
Humidity 87%
Rainfall 0.00 in
Snow Depth Not available.
7:09 AM 7:09 PM
Waning Crescent, 29% visible
METAR K2G4 251030Z AUTO 12009KT 10SM CLR 08/06 A3021 RMK AO1
Pressure 30.21 in
Visibility 10.0 miles
Clouds Clear
Windchill 43 °F
Dew Point 40 °F
Humidity 87%
Rainfall 0.00 in
Snow Depth Not available.
7:09 AM 7:09 PM
Waning Crescent, 29% visible
METAR K2G4 251030Z AUTO 12009KT 10SM CLR 08/06 A3021 RMK AO1

10-Day Weather Forecast

Almanac

Astronomy

Sep. 25, 2016 Rise Set
Actual Time
Civil Twilight
Nautical Twilight
Astronomical Twilight
Moon
Length of Visible Light
Length of Day
Tomorrow will be .
, % of the Moon is Illuminated

Today's Extremes

State Highs State Lows

Community

WunderPhotos

Upload Photos

1,941,570 photos uploaded!

WunderBlog® & News

Nearby

Air Quality

  Air Quality AQ Index Pollutant
Not available.

Snow Depth

Station Depth Elevation

Earthquake Activity

City Distance Mag. Time & Date
Minimum magnitude displayed is 2.5.

Coastal Water Temperatures

Place Temperature

Stations

Nearby Weather Stations

Station Location Temp. Windchill Dew Point Humidity Wind Precip. Elev Updated Type
                   

Watches & Warnings

There are currently no watches in effect.